sensor_id;sensor_type;location;lat;lon;timestamp;P1;durP1;ratioP1;P2;durP2;ratioP2
21806;SDS011;11065;50.786;7.840;2022-07-05T00:01:31;3.20;;;0.93;;
21806;SDS011;11065;50.786;7.840;2022-07-05T00:03:58;2.33;;;0.80;;
21806;SDS011;11065;50.786;7.840;2022-07-05T00:06:25;1.27;;;0.70;;
21806;SDS011;11065;50.786;7.840;2022-07-05T00:08:51;3.07;;;0.93;;
21806;SDS011;11065;50.786;7.840;2022-07-05T00:11:18;1.13;;;0.70;;
21806;SDS011;11065;50.786;7.840;2022-07-05T00:13:45;1.97;;;0.87;;
21806;SDS011;11065;50.786;7.840;2022-07-05T00:16:12;2.43;;;0.80;;
21806;SDS011;11065;50.786;7.840;2022-07-05T00:18:39;1.50;;;0.80;;
21806;SDS011;11065;50.786;7.840;2022-07-05T00:21:06;3.43;;;0.87;;
21806;SDS011;11065;50.786;7.840;2022-07-05T00:23:32;2.03;;;0.90;;
21806;SDS011;11065;50.786;7.840;2022-07-05T00:25:59;1.57;;;0.97;;
21806;SDS011;11065;50.786;7.840;2022-07-05T00:28:26;1.50;;;0.90;;
21806;SDS011;11065;50.786;7.840;2022-07-05T00:30:53;1.43;;;0.83;;
21806;SDS011;11065;50.786;7.840;2022-07-05T00:33:20;2.10;;;1.00;;
21806;SDS011;11065;50.786;7.840;2022-07-05T00:35:47;2.10;;;0.97;;
21806;SDS011;11065;50.786;7.840;2022-07-05T00:38:14;2.03;;;1.00;;
21806;SDS011;11065;50.786;7.840;2022-07-05T00:40:42;1.43;;;0.90;;
21806;SDS011;11065;50.786;7.840;2022-07-05T00:43:09;1.17;;;0.77;;
21806;SDS011;11065;50.786;7.840;2022-07-05T00:45:36;1.20;;;0.77;;
21806;SDS011;11065;50.786;7.840;2022-07-05T00:48:03;1.20;;;0.80;;
21806;SDS011;11065;50.786;7.840;2022-07-05T00:50:30;1.60;;;0.93;;
21806;SDS011;11065;50.786;7.840;2022-07-05T00:52:59;1.67;;;0.80;;
21806;SDS011;11065;50.786;7.840;2022-07-05T00:55:26;1.63;;;0.80;;
21806;SDS011;11065;50.786;7.840;2022-07-05T00:57:53;1.77;;;0.77;;
21806;SDS011;11065;50.786;7.840;2022-07-05T01:00:20;1.20;;;0.90;;
21806;SDS011;11065;50.786;7.840;2022-07-05T01:02:47;2.03;;;0.90;;
21806;SDS011;11065;50.786;7.840;2022-07-05T01:05:15;1.10;;;0.80;;
21806;SDS011;11065;50.786;7.840;2022-07-05T01:07:42;1.43;;;0.80;;
21806;SDS011;11065;50.786;7.840;2022-07-05T01:10:10;2.23;;;0.90;;
21806;SDS011;11065;50.786;7.840;2022-07-05T01:12:37;2.37;;;1.00;;
21806;SDS011;11065;50.786;7.840;2022-07-05T01:15:06;1.97;;;0.87;;
21806;SDS011;11065;50.786;7.840;2022-07-05T01:17:34;2.60;;;0.80;;
21806;SDS011;11065;50.786;7.840;2022-07-05T01:20:04;2.20;;;1.20;;
21806;SDS011;11065;50.786;7.840;2022-07-05T01:25:20;2.00;;;1.00;;
21806;SDS011;11065;50.786;7.840;2022-07-05T01:27:49;1.67;;;0.90;;
21806;SDS011;11065;50.786;7.840;2022-07-05T01:30:16;2.37;;;0.97;;
21806;SDS011;11065;50.786;7.840;2022-07-05T01:32:43;1.00;;;0.80;;
21806;SDS011;11065;50.786;7.840;2022-07-05T01:35:10;1.43;;;0.80;;
21806;SDS011;11065;50.786;7.840;2022-07-05T01:37:38;1.77;;;1.00;;
21806;SDS011;11065;50.786;7.840;2022-07-05T01:40:05;2.30;;;0.80;;
21806;SDS011;11065;50.786;7.840;2022-07-05T01:42:33;2.57;;;1.33;;
21806;SDS011;11065;50.786;7.840;2022-07-05T01:45:00;1.57;;;0.90;;
21806;SDS011;11065;50.786;7.840;2022-07-05T01:47:27;2.10;;;1.00;;
21806;SDS011;11065;50.786;7.840;2022-07-05T01:49:54;4.27;;;1.03;;
21806;SDS011;11065;50.786;7.840;2022-07-05T01:52:25;2.00;;;1.00;;
21806;SDS011;11065;50.786;7.840;2022-07-05T01:54:54;2.30;;;1.10;;
21806;SDS011;11065;50.786;7.840;2022-07-05T01:57:21;1.40;;;0.90;;
21806;SDS011;11065;50.786;7.840;2022-07-05T01:59:47;1.07;;;0.93;;
21806;SDS011;11065;50.786;7.840;2022-07-05T02:02:15;3.10;;;1.10;;
21806;SDS011;11065;50.786;7.840;2022-07-05T02:04:46;1.70;;;0.87;;
21806;SDS011;11065;50.786;7.840;2022-07-05T02:07:14;1.73;;;0.90;;
21806;SDS011;11065;50.786;7.840;2022-07-05T02:09:42;2.13;;;1.00;;
21806;SDS011;11065;50.786;7.840;2022-07-05T02:12:08;1.23;;;0.83;;
21806;SDS011;11065;50.786;7.840;2022-07-05T02:14:36;2.23;;;0.97;;
21806;SDS011;11065;50.786;7.840;2022-07-05T02:17:06;1.77;;;0.93;;
21806;SDS011;11065;50.786;7.840;2022-07-05T02:19:34;1.97;;;1.03;;
21806;SDS011;11065;50.786;7.840;2022-07-05T02:22:05;1.50;;;1.00;;
21806;SDS011;11065;50.786;7.840;2022-07-05T02:24:33;3.27;;;1.10;;
21806;SDS011;11065;50.786;7.840;2022-07-05T02:27:11;1.17;;;0.90;;
21806;SDS011;11065;50.786;7.840;2022-07-05T02:29:39;1.43;;;0.87;;
21806;SDS011;11065;50.786;7.840;2022-07-05T02:32:06;1.70;;;0.90;;
21806;SDS011;11065;50.786;7.840;2022-07-05T02:34:33;2.50;;;1.00;;
21806;SDS011;11065;50.786;7.840;2022-07-05T02:37:00;2.07;;;0.90;;
21806;SDS011;11065;50.786;7.840;2022-07-05T02:39:27;2.47;;;1.07;;
21806;SDS011;11065;50.786;7.840;2022-07-05T02:41:57;1.27;;;0.80;;
21806;SDS011;11065;50.786;7.840;2022-07-05T02:44:24;1.40;;;0.90;;
21806;SDS011;11065;50.786;7.840;2022-07-05T02:46:51;1.70;;;1.10;;
21806;SDS011;11065;50.786;7.840;2022-07-05T02:49:19;3.50;;;1.13;;
21806;SDS011;11065;50.786;7.840;2022-07-05T02:51:46;2.07;;;0.90;;
21806;SDS011;11065;50.786;7.840;2022-07-05T02:54:13;2.57;;;1.03;;
21806;SDS011;11065;50.786;7.840;2022-07-05T02:56:41;1.50;;;0.97;;
21806;SDS011;11065;50.786;7.840;2022-07-05T02:59:11;0.80;;;0.70;;
21806;SDS011;11065;50.786;7.840;2022-07-05T03:01:38;3.20;;;1.00;;
21806;SDS011;11065;50.786;7.840;2022-07-05T03:04:10;2.07;;;1.00;;
21806;SDS011;11065;50.786;7.840;2022-07-05T03:06:41;1.60;;;1.03;;
21806;SDS011;11065;50.786;7.840;2022-07-05T03:09:08;3.27;;;1.00;;
21806;SDS011;11065;50.786;7.840;2022-07-05T03:11:36;1.30;;;0.87;;
21806;SDS011;11065;50.786;7.840;2022-07-05T03:14:05;2.00;;;1.03;;
21806;SDS011;11065;50.786;7.840;2022-07-05T03:16:32;2.20;;;1.10;;
21806;SDS011;11065;50.786;7.840;2022-07-05T03:19:00;2.17;;;1.03;;
21806;SDS011;11065;50.786;7.840;2022-07-05T03:21:27;3.03;;;1.07;;
21806;SDS011;11065;50.786;7.840;2022-07-05T03:23:54;2.17;;;0.87;;
21806;SDS011;11065;50.786;7.840;2022-07-05T03:26:21;2.53;;;1.00;;
21806;SDS011;11065;50.786;7.840;2022-07-05T03:28:48;1.87;;;1.00;;
21806;SDS011;11065;50.786;7.840;2022-07-05T03:31:16;1.77;;;0.90;;
21806;SDS011;11065;50.786;7.840;2022-07-05T03:33:44;2.80;;;1.23;;
21806;SDS011;11065;50.786;7.840;2022-07-05T03:36:12;2.43;;;1.20;;
21806;SDS011;11065;50.786;7.840;2022-07-05T03:38:41;1.87;;;1.00;;
21806;SDS011;11065;50.786;7.840;2022-07-05T03:41:08;1.70;;;0.93;;
21806;SDS011;11065;50.786;7.840;2022-07-05T03:43:34;2.23;;;1.10;;
21806;SDS011;11065;50.786;7.840;2022-07-05T03:46:02;1.47;;;0.80;;
21806;SDS011;11065;50.786;7.840;2022-07-05T03:48:30;2.23;;;1.30;;
21806;SDS011;11065;50.786;7.840;2022-07-05T03:51:09;1.53;;;0.90;;
21806;SDS011;11065;50.786;7.840;2022-07-05T03:53:36;2.07;;;1.00;;
21806;SDS011;11065;50.786;7.840;2022-07-05T03:56:04;2.80;;;1.10;;
21806;SDS011;11065;50.786;7.840;2022-07-05T03:58:31;2.77;;;1.10;;
21806;SDS011;11065;50.786;7.840;2022-07-05T04:00:59;1.80;;;1.00;;
21806;SDS011;11065;50.786;7.840;2022-07-05T04:03:29;1.70;;;1.00;;
21806;SDS011;11065;50.786;7.840;2022-07-05T04:05:57;2.30;;;1.17;;
21806;SDS011;11065;50.786;7.840;2022-07-05T04:08:26;2.20;;;1.13;;
21806;SDS011;11065;50.786;7.840;2022-07-05T04:10:52;2.60;;;1.30;;
21806;SDS011;11065;50.786;7.840;2022-07-05T04:13:21;4.13;;;1.20;;
21806;SDS011;11065;50.786;7.840;2022-07-05T04:15:51;2.37;;;1.17;;
21806;SDS011;11065;50.786;7.840;2022-07-05T04:18:20;1.33;;;1.00;;
21806;SDS011;11065;50.786;7.840;2022-07-05T04:20:47;3.13;;;1.10;;
21806;SDS011;11065;50.786;7.840;2022-07-05T04:23:14;3.87;;;1.20;;
21806;SDS011;11065;50.786;7.840;2022-07-05T04:25:41;2.27;;;1.13;;
21806;SDS011;11065;50.786;7.840;2022-07-05T04:28:30;2.00;;;1.10;;
21806;SDS011;11065;50.786;7.840;2022-07-05T04:31:00;4.33;;;1.33;;
21806;SDS011;11065;50.786;7.840;2022-07-05T04:33:30;3.13;;;1.43;;
21806;SDS011;11065;50.786;7.840;2022-07-05T04:35:58;2.30;;;1.07;;
21806;SDS011;11065;50.786;7.840;2022-07-05T04:38:24;2.40;;;1.30;;
21806;SDS011;11065;50.786;7.840;2022-07-05T04:40:53;1.93;;;1.10;;
21806;SDS011;11065;50.786;7.840;2022-07-05T04:43:20;4.03;;;1.20;;
21806;SDS011;11065;50.786;7.840;2022-07-05T04:45:47;4.60;;;1.43;;
21806;SDS011;11065;50.786;7.840;2022-07-05T04:48:22;1.97;;;1.20;;
21806;SDS011;11065;50.786;7.840;2022-07-05T04:50:48;2.50;;;1.50;;
21806;SDS011;11065;50.786;7.840;2022-07-05T04:53:15;5.03;;;1.60;;
21806;SDS011;11065;50.786;7.840;2022-07-05T04:55:42;2.67;;;1.10;;
21806;SDS011;11065;50.786;7.840;2022-07-05T04:58:09;2.13;;;1.33;;
21806;SDS011;11065;50.786;7.840;2022-07-05T05:00:37;1.83;;;1.20;;
21806;SDS011;11065;50.786;7.840;2022-07-05T05:03:04;2.13;;;1.23;;
21806;SDS011;11065;50.786;7.840;2022-07-05T05:05:31;2.70;;;1.20;;
21806;SDS011;11065;50.786;7.840;2022-07-05T05:07:58;2.73;;;1.40;;
21806;SDS011;11065;50.786;7.840;2022-07-05T05:10:25;3.70;;;1.67;;
21806;SDS011;11065;50.786;7.840;2022-07-05T05:12:52;3.10;;;1.57;;
21806;SDS011;11065;50.786;7.840;2022-07-05T05:15:19;3.57;;;1.50;;
21806;SDS011;11065;50.786;7.840;2022-07-05T05:17:45;2.07;;;1.50;;
21806;SDS011;11065;50.786;7.840;2022-07-05T05:20:13;1.97;;;1.17;;
21806;SDS011;11065;50.786;7.840;2022-07-05T05:22:44;2.57;;;1.30;;
21806;SDS011;11065;50.786;7.840;2022-07-05T05:25:12;3.37;;;1.70;;
21806;SDS011;11065;50.786;7.840;2022-07-05T05:27:40;2.07;;;1.30;;
21806;SDS011;11065;50.786;7.840;2022-07-05T05:30:14;1.83;;;1.37;;
21806;SDS011;11065;50.786;7.840;2022-07-05T05:32:46;2.97;;;1.70;;
21806;SDS011;11065;50.786;7.840;2022-07-05T05:35:13;2.77;;;1.30;;
21806;SDS011;11065;50.786;7.840;2022-07-05T05:40:14;2.40;;;1.27;;
21806;SDS011;11065;50.786;7.840;2022-07-05T05:42:41;1.87;;;1.40;;
21806;SDS011;11065;50.786;7.840;2022-07-05T05:45:08;3.17;;;1.60;;
21806;SDS011;11065;50.786;7.840;2022-07-05T05:47:49;3.07;;;1.40;;
21806;SDS011;11065;50.786;7.840;2022-07-05T05:50:21;3.43;;;1.40;;
21806;SDS011;11065;50.786;7.840;2022-07-05T05:52:53;2.27;;;1.50;;
21806;SDS011;11065;50.786;7.840;2022-07-05T05:55:21;2.63;;;1.50;;
21806;SDS011;11065;50.786;7.840;2022-07-05T05:57:49;4.37;;;1.70;;
21806;SDS011;11065;50.786;7.840;2022-07-05T06:00:16;3.10;;;1.93;;
21806;SDS011;11065;50.786;7.840;2022-07-05T06:02:45;2.47;;;1.57;;
21806;SDS011;11065;50.786;7.840;2022-07-05T06:05:13;1.70;;;1.30;;
21806;SDS011;11065;50.786;7.840;2022-07-05T06:07:47;3.83;;;1.60;;
21806;SDS011;11065;50.786;7.840;2022-07-05T06:10:25;5.13;;;1.90;;
21806;SDS011;11065;50.786;7.840;2022-07-05T06:12:59;3.57;;;1.60;;
21806;SDS011;11065;50.786;7.840;2022-07-05T06:15:29;3.80;;;1.70;;
21806;SDS011;11065;50.786;7.840;2022-07-05T06:17:57;2.50;;;1.50;;
21806;SDS011;11065;50.786;7.840;2022-07-05T06:20:24;3.97;;;1.67;;
21806;SDS011;11065;50.786;7.840;2022-07-05T06:22:53;3.67;;;1.80;;
21806;SDS011;11065;50.786;7.840;2022-07-05T06:25:21;2.50;;;1.60;;
21806;SDS011;11065;50.786;7.840;2022-07-05T06:27:50;5.90;;;1.60;;
21806;SDS011;11065;50.786;7.840;2022-07-05T06:30:20;2.70;;;1.60;;
21806;SDS011;11065;50.786;7.840;2022-07-05T06:32:48;3.20;;;1.83;;
21806;SDS011;11065;50.786;7.840;2022-07-05T06:35:16;3.37;;;1.43;;
21806;SDS011;11065;50.786;7.840;2022-07-05T06:37:44;3.20;;;1.50;;
21806;SDS011;11065;50.786;7.840;2022-07-05T06:40:19;3.30;;;1.70;;
21806;SDS011;11065;50.786;7.840;2022-07-05T06:42:48;4.57;;;1.57;;
21806;SDS011;11065;50.786;7.840;2022-07-05T06:45:17;4.27;;;1.40;;
21806;SDS011;11065;50.786;7.840;2022-07-05T06:47:44;3.60;;;1.47;;
21806;SDS011;11065;50.786;7.840;2022-07-05T06:50:12;2.50;;;1.80;;
21806;SDS011;11065;50.786;7.840;2022-07-05T06:52:39;1.97;;;1.47;;
21806;SDS011;11065;50.786;7.840;2022-07-05T06:55:06;4.00;;;2.00;;
21806;SDS011;11065;50.786;7.840;2022-07-05T06:57:33;3.23;;;1.60;;
21806;SDS011;11065;50.786;7.840;2022-07-05T07:00:00;2.70;;;1.70;;
21806;SDS011;11065;50.786;7.840;2022-07-05T07:02:28;2.23;;;1.50;;
21806;SDS011;11065;50.786;7.840;2022-07-05T07:04:55;3.93;;;1.57;;
21806;SDS011;11065;50.786;7.840;2022-07-05T07:07:39;3.37;;;1.57;;
21806;SDS011;11065;50.786;7.840;2022-07-05T07:10:25;3.90;;;1.80;;
21806;SDS011;11065;50.786;7.840;2022-07-05T07:12:56;4.10;;;1.73;;
21806;SDS011;11065;50.786;7.840;2022-07-05T07:15:23;4.53;;;1.90;;
21806;SDS011;11065;50.786;7.840;2022-07-05T07:17:50;2.37;;;1.60;;
21806;SDS011;11065;50.786;7.840;2022-07-05T07:20:17;2.43;;;1.77;;
21806;SDS011;11065;50.786;7.840;2022-07-05T07:22:44;2.70;;;1.80;;
21806;SDS011;11065;50.786;7.840;2022-07-05T07:25:11;2.80;;;1.83;;
21806;SDS011;11065;50.786;7.840;2022-07-05T07:27:44;3.77;;;1.63;;
21806;SDS011;11065;50.786;7.840;2022-07-05T07:30:12;3.53;;;1.63;;
21806;SDS011;11065;50.786;7.840;2022-07-05T07:32:41;2.43;;;1.43;;
21806;SDS011;11065;50.786;7.840;2022-07-05T07:35:08;2.63;;;1.60;;
21806;SDS011;11065;50.786;7.840;2022-07-05T07:37:36;3.67;;;1.67;;
21806;SDS011;11065;50.786;7.840;2022-07-05T07:40:03;2.80;;;1.60;;
21806;SDS011;11065;50.786;7.840;2022-07-05T07:42:31;3.63;;;1.70;;
21806;SDS011;11065;50.786;7.840;2022-07-05T07:44:59;4.07;;;1.90;;
21806;SDS011;11065;50.786;7.840;2022-07-05T07:47:30;3.60;;;1.40;;
21806;SDS011;11065;50.786;7.840;2022-07-05T07:49:58;3.90;;;1.70;;
21806;SDS011;11065;50.786;7.840;2022-07-05T07:52:25;2.20;;;1.60;;
21806;SDS011;11065;50.786;7.840;2022-07-05T07:54:52;3.83;;;1.97;;
21806;SDS011;11065;50.786;7.840;2022-07-05T07:57:19;2.73;;;1.90;;
21806;SDS011;11065;50.786;7.840;2022-07-05T07:59:46;5.03;;;1.70;;
21806;SDS011;11065;50.786;7.840;2022-07-05T08:02:13;4.10;;;1.90;;
21806;SDS011;11065;50.786;7.840;2022-07-05T08:04:40;3.40;;;2.20;;
21806;SDS011;11065;50.786;7.840;2022-07-05T08:07:07;2.63;;;1.70;;
21806;SDS011;11065;50.786;7.840;2022-07-05T08:09:34;3.13;;;1.90;;
21806;SDS011;11065;50.786;7.840;2022-07-05T08:12:01;5.43;;;1.90;;
21806;SDS011;11065;50.786;7.840;2022-07-05T08:14:28;3.13;;;2.10;;
21806;SDS011;11065;50.786;7.840;2022-07-05T08:16:55;3.70;;;1.87;;
21806;SDS011;11065;50.786;7.840;2022-07-05T08:19:22;3.67;;;2.03;;
21806;SDS011;11065;50.786;7.840;2022-07-05T08:22:07;3.93;;;1.90;;
21806;SDS011;11065;50.786;7.840;2022-07-05T08:24:36;7.67;;;2.57;;
21806;SDS011;11065;50.786;7.840;2022-07-05T08:27:05;3.10;;;1.70;;
21806;SDS011;11065;50.786;7.840;2022-07-05T08:29:32;2.97;;;2.00;;
21806;SDS011;11065;50.786;7.840;2022-07-05T08:32:00;2.83;;;1.73;;
21806;SDS011;11065;50.786;7.840;2022-07-05T08:34:27;3.27;;;2.00;;
21806;SDS011;11065;50.786;7.840;2022-07-05T08:36:54;3.20;;;2.30;;
21806;SDS011;11065;50.786;7.840;2022-07-05T08:39:21;3.57;;;1.93;;
21806;SDS011;11065;50.786;7.840;2022-07-05T08:41:48;2.70;;;1.83;;
21806;SDS011;11065;50.786;7.840;2022-07-05T08:44:21;5.97;;;2.03;;
21806;SDS011;11065;50.786;7.840;2022-07-05T08:46:49;4.63;;;2.03;;
21806;SDS011;11065;50.786;7.840;2022-07-05T08:49:22;3.70;;;2.03;;
21806;SDS011;11065;50.786;7.840;2022-07-05T08:51:51;3.03;;;2.07;;
21806;SDS011;11065;50.786;7.840;2022-07-05T08:54:20;2.50;;;1.77;;
21806;SDS011;11065;50.786;7.840;2022-07-05T08:56:48;4.27;;;2.20;;
21806;SDS011;11065;50.786;7.840;2022-07-05T08:59:36;3.57;;;2.00;;
21806;SDS011;11065;50.786;7.840;2022-07-05T09:02:03;3.57;;;2.20;;
21806;SDS011;11065;50.786;7.840;2022-07-05T09:04:31;3.27;;;2.33;;
21806;SDS011;11065;50.786;7.840;2022-07-05T09:07:03;5.27;;;2.47;;
21806;SDS011;11065;50.786;7.840;2022-07-05T09:09:34;3.40;;;2.40;;
21806;SDS011;11065;50.786;7.840;2022-07-05T09:12:08;3.90;;;2.17;;
21806;SDS011;11065;50.786;7.840;2022-07-05T09:14:48;4.23;;;2.37;;
21806;SDS011;11065;50.786;7.840;2022-07-05T09:17:15;3.87;;;2.40;;
21806;SDS011;11065;50.786;7.840;2022-07-05T09:19:42;3.53;;;2.67;;
21806;SDS011;11065;50.786;7.840;2022-07-05T09:22:09;6.13;;;2.77;;
21806;SDS011;11065;50.786;7.840;2022-07-05T09:24:42;3.90;;;2.73;;
21806;SDS011;11065;50.786;7.840;2022-07-05T09:27:11;4.40;;;2.97;;
21806;SDS011;11065;50.786;7.840;2022-07-05T09:29:39;4.00;;;2.53;;
21806;SDS011;11065;50.786;7.840;2022-07-05T09:32:28;4.28;;;2.72;;
21806;SDS011;11065;50.786;7.840;2022-07-05T09:34:56;3.72;;;2.85;;
21806;SDS011;11065;50.786;7.840;2022-07-05T09:37:42;3.55;;;2.38;;
21806;SDS011;11065;50.786;7.840;2022-07-05T09:40:10;4.47;;;2.60;;
21806;SDS011;11065;50.786;7.840;2022-07-05T09:42:45;5.80;;;3.50;;
21806;SDS011;11065;50.786;7.840;2022-07-05T09:45:23;3.00;;;2.35;;
21806;SDS011;11065;50.786;7.840;2022-07-05T09:47:50;4.85;;;2.65;;
21806;SDS011;11065;50.786;7.840;2022-07-05T09:50:40;3.95;;;1.98;;
21806;SDS011;11065;50.786;7.840;2022-07-05T09:53:27;5.13;;;2.25;;
21806;SDS011;11065;50.786;7.840;2022-07-05T09:56:25;6.63;;;2.25;;
21806;SDS011;11065;50.786;7.840;2022-07-05T09:59:05;3.30;;;2.28;;
21806;SDS011;11065;50.786;7.840;2022-07-05T10:01:38;4.30;;;2.65;;
21806;SDS011;11065;50.786;7.840;2022-07-05T10:04:07;3.15;;;2.10;;
21806;SDS011;11065;50.786;7.840;2022-07-05T10:06:35;3.75;;;2.33;;
21806;SDS011;11065;50.786;7.840;2022-07-05T10:09:02;3.75;;;2.20;;
21806;SDS011;11065;50.786;7.840;2022-07-05T10:11:30;4.55;;;2.28;;
21806;SDS011;11065;50.786;7.840;2022-07-05T10:13:57;3.40;;;2.25;;
21806;SDS011;11065;50.786;7.840;2022-07-05T10:16:25;4.43;;;2.10;;
21806;SDS011;11065;50.786;7.840;2022-07-05T10:18:55;4.35;;;2.13;;
21806;SDS011;11065;50.786;7.840;2022-07-05T10:21:24;3.97;;;2.30;;
21806;SDS011;11065;50.786;7.840;2022-07-05T10:23:52;4.57;;;2.30;;
21806;SDS011;11065;50.786;7.840;2022-07-05T10:26:23;2.55;;;1.83;;
21806;SDS011;11065;50.786;7.840;2022-07-05T10:28:52;2.72;;;2.00;;
21806;SDS011;11065;50.786;7.840;2022-07-05T10:31:27;4.20;;;1.50;;
21806;SDS011;11065;50.786;7.840;2022-07-05T10:33:55;2.65;;;1.70;;
21806;SDS011;11065;50.786;7.840;2022-07-05T10:36:24;2.42;;;1.70;;
21806;SDS011;11065;50.786;7.840;2022-07-05T10:38:52;2.42;;;1.48;;
21806;SDS011;11065;50.786;7.840;2022-07-05T10:41:22;2.72;;;1.60;;
21806;SDS011;11065;50.786;7.840;2022-07-05T10:43:57;4.38;;;1.48;;
21806;SDS011;11065;50.786;7.840;2022-07-05T10:46:34;4.32;;;1.45;;
21806;SDS011;11065;50.786;7.840;2022-07-05T10:49:11;2.60;;;1.10;;
21806;SDS011;11065;50.786;7.840;2022-07-05T10:51:41;2.47;;;1.20;;
21806;SDS011;11065;50.786;7.840;2022-07-05T10:54:08;1.70;;;1.17;;
21806;SDS011;11065;50.786;7.840;2022-07-05T10:56:35;2.67;;;1.20;;
21806;SDS011;11065;50.786;7.840;2022-07-05T10:59:08;1.42;;;1.25;;
21806;SDS011;11065;50.786;7.840;2022-07-05T11:01:38;1.77;;;1.20;;
21806;SDS011;11065;50.786;7.840;2022-07-05T11:04:15;1.80;;;1.00;;
21806;SDS011;11065;50.786;7.840;2022-07-05T11:06:45;2.22;;;1.10;;
21806;SDS011;11065;50.786;7.840;2022-07-05T11:09:14;1.60;;;0.95;;
21806;SDS011;11065;50.786;7.840;2022-07-05T11:14:34;1.42;;;0.90;;
21806;SDS011;11065;50.786;7.840;2022-07-05T11:22:36;1.08;;;0.98;;
21806;SDS011;11065;50.786;7.840;2022-07-05T11:25:23;2.63;;;0.80;;
21806;SDS011;11065;50.786;7.840;2022-07-05T11:28:06;1.85;;;0.95;;
21806;SDS011;11065;50.786;7.840;2022-07-05T11:30:50;1.52;;;0.90;;
21806;SDS011;11065;50.786;7.840;2022-07-05T11:33:26;1.65;;;0.82;;
21806;SDS011;11065;50.786;7.840;2022-07-05T11:35:56;2.10;;;0.95;;
21806;SDS011;11065;50.786;7.840;2022-07-05T11:38:26;2.17;;;0.88;;
21806;SDS011;11065;50.786;7.840;2022-07-05T11:41:13;3.63;;;1.10;;
21806;SDS011;11065;50.786;7.840;2022-07-05T11:43:41;2.45;;;1.00;;
21806;SDS011;11065;50.786;7.840;2022-07-05T11:46:09;2.40;;;0.90;;
21806;SDS011;11065;50.786;7.840;2022-07-05T11:48:56;2.58;;;0.82;;
21806;SDS011;11065;50.786;7.840;2022-07-05T11:51:23;10.68;;;2.00;;
21806;SDS011;11065;50.786;7.840;2022-07-05T11:53:50;1.75;;;1.00;;
21806;SDS011;11065;50.786;7.840;2022-07-05T11:56:37;1.92;;;0.95;;
21806;SDS011;11065;50.786;7.840;2022-07-05T11:59:20;1.58;;;0.82;;
21806;SDS011;11065;50.786;7.840;2022-07-05T12:01:47;1.05;;;0.80;;
21806;SDS011;11065;50.786;7.840;2022-07-05T12:06:55;1.88;;;0.85;;
21806;SDS011;11065;50.786;7.840;2022-07-05T12:09:27;3.17;;;1.02;;
21806;SDS011;11065;50.786;7.840;2022-07-05T12:12:18;2.80;;;1.48;;
21806;SDS011;11065;50.786;7.840;2022-07-05T12:15:04;2.60;;;0.90;;
21806;SDS011;11065;50.786;7.840;2022-07-05T12:17:35;1.42;;;1.08;;
21806;SDS011;11065;50.786;7.840;2022-07-05T12:20:04;0.70;;;0.70;;
21806;SDS011;11065;50.786;7.840;2022-07-05T12:22:32;1.92;;;0.98;;
21806;SDS011;11065;50.786;7.840;2022-07-05T12:25:00;1.95;;;0.93;;
21806;SDS011;11065;50.786;7.840;2022-07-05T12:27:29;1.23;;;0.80;;
21806;SDS011;11065;50.786;7.840;2022-07-05T12:29:58;1.92;;;1.13;;
21806;SDS011;11065;50.786;7.840;2022-07-05T12:32:25;1.00;;;0.80;;
21806;SDS011;11065;50.786;7.840;2022-07-05T12:34:52;6.85;;;1.23;;
21806;SDS011;11065;50.786;7.840;2022-07-05T12:37:22;2.42;;;1.20;;
21806;SDS011;11065;50.786;7.840;2022-07-05T12:39:50;1.25;;;1.05;;
21806;SDS011;11065;50.786;7.840;2022-07-05T12:42:38;2.85;;;0.90;;
21806;SDS011;11065;50.786;7.840;2022-07-05T12:45:06;1.63;;;0.93;;
21806;SDS011;11065;50.786;7.840;2022-07-05T12:47:52;1.70;;;1.05;;
21806;SDS011;11065;50.786;7.840;2022-07-05T12:50:24;1.98;;;1.00;;
21806;SDS011;11065;50.786;7.840;2022-07-05T12:53:18;2.15;;;0.98;;
21806;SDS011;11065;50.786;7.840;2022-07-05T12:58:51;2.72;;;1.00;;
21806;SDS011;11065;50.786;7.840;2022-07-05T13:01:30;1.80;;;0.90;;
21806;SDS011;11065;50.786;7.840;2022-07-05T13:04:07;2.60;;;1.00;;
21806;SDS011;11065;50.786;7.840;2022-07-05T13:09:12;2.20;;;1.40;;
21806;SDS011;11065;50.786;7.840;2022-07-05T13:11:40;2.00;;;1.00;;
21806;SDS011;11065;50.786;7.840;2022-07-05T13:14:07;2.00;;;1.17;;
21806;SDS011;11065;50.786;7.840;2022-07-05T13:16:34;1.38;;;0.90;;
21806;SDS011;11065;50.786;7.840;2022-07-05T13:19:08;3.63;;;1.35;;
21806;SDS011;11065;50.786;7.840;2022-07-05T13:21:38;2.20;;;1.25;;
21806;SDS011;11065;50.786;7.840;2022-07-05T13:24:05;1.30;;;1.05;;
21806;SDS011;11065;50.786;7.840;2022-07-05T13:26:33;3.42;;;1.50;;
21806;SDS011;11065;50.786;7.840;2022-07-05T13:29:00;1.65;;;1.23;;
21806;SDS011;11065;50.786;7.840;2022-07-05T13:31:26;4.07;;;1.60;;
21806;SDS011;11065;50.786;7.840;2022-07-05T13:33:55;1.92;;;1.15;;
21806;SDS011;11065;50.786;7.840;2022-07-05T13:36:22;2.22;;;1.17;;
21806;SDS011;11065;50.786;7.840;2022-07-05T13:38:49;4.30;;;1.20;;
21806;SDS011;11065;50.786;7.840;2022-07-05T13:41:16;2.10;;;1.23;;
21806;SDS011;11065;50.786;7.840;2022-07-05T13:43:43;2.03;;;1.25;;
21806;SDS011;11065;50.786;7.840;2022-07-05T13:46:13;1.92;;;1.10;;
21806;SDS011;11065;50.786;7.840;2022-07-05T13:48:40;2.67;;;1.45;;
21806;SDS011;11065;50.786;7.840;2022-07-05T13:51:07;1.48;;;1.15;;
21806;SDS011;11065;50.786;7.840;2022-07-05T13:53:34;2.15;;;1.42;;
21806;SDS011;11065;50.786;7.840;2022-07-05T13:56:05;1.95;;;1.20;;
21806;SDS011;11065;50.786;7.840;2022-07-05T13:58:33;2.38;;;1.27;;
21806;SDS011;11065;50.786;7.840;2022-07-05T14:01:01;3.97;;;1.65;;
21806;SDS011;11065;50.786;7.840;2022-07-05T14:03:31;2.45;;;1.65;;
21806;SDS011;11065;50.786;7.840;2022-07-05T14:05:58;2.67;;;1.30;;
21806;SDS011;11065;50.786;7.840;2022-07-05T14:08:25;1.65;;;1.10;;
21806;SDS011;11065;50.786;7.840;2022-07-05T14:10:53;4.40;;;1.25;;
21806;SDS011;11065;50.786;7.840;2022-07-05T14:13:22;1.70;;;1.10;;
21806;SDS011;11065;50.786;7.840;2022-07-05T14:15:50;3.22;;;1.40;;
21806;SDS011;11065;50.786;7.840;2022-07-05T14:18:18;2.58;;;1.00;;
21806;SDS011;11065;50.786;7.840;2022-07-05T14:20:47;2.80;;;1.17;;
21806;SDS011;11065;50.786;7.840;2022-07-05T14:23:14;2.67;;;1.00;;
21806;SDS011;11065;50.786;7.840;2022-07-05T14:25:42;1.60;;;0.98;;
21806;SDS011;11065;50.786;7.840;2022-07-05T14:28:09;2.38;;;1.30;;
21806;SDS011;11065;50.786;7.840;2022-07-05T14:30:37;2.67;;;1.10;;
21806;SDS011;11065;50.786;7.840;2022-07-05T14:33:05;2.22;;;1.00;;
21806;SDS011;11065;50.786;7.840;2022-07-05T14:35:32;2.63;;;1.10;;
21806;SDS011;11065;50.786;7.840;2022-07-05T14:38:00;1.83;;;1.00;;
21806;SDS011;11065;50.786;7.840;2022-07-05T14:40:27;2.85;;;1.00;;
21806;SDS011;11065;50.786;7.840;2022-07-05T14:42:54;2.28;;;1.08;;
21806;SDS011;11065;50.786;7.840;2022-07-05T14:45:21;1.70;;;1.20;;
21806;SDS011;11065;50.786;7.840;2022-07-05T14:47:54;1.42;;;1.00;;
21806;SDS011;11065;50.786;7.840;2022-07-05T14:50:21;1.48;;;1.10;;
21806;SDS011;11065;50.786;7.840;2022-07-05T14:52:49;1.55;;;1.17;;
21806;SDS011;11065;50.786;7.840;2022-07-05T14:55:16;1.55;;;1.08;;
21806;SDS011;11065;50.786;7.840;2022-07-05T14:57:43;1.83;;;1.02;;
21806;SDS011;11065;50.786;7.840;2022-07-05T15:00:11;1.90;;;1.00;;
21806;SDS011;11065;50.786;7.840;2022-07-05T15:02:40;1.42;;;0.98;;
21806;SDS011;11065;50.786;7.840;2022-07-05T15:05:07;2.40;;;1.52;;
21806;SDS011;11065;50.786;7.840;2022-07-05T15:07:36;1.50;;;1.00;;
21806;SDS011;11065;50.786;7.840;2022-07-05T15:10:03;2.83;;;0.93;;
21806;SDS011;11065;50.786;7.840;2022-07-05T15:12:30;1.58;;;1.00;;
21806;SDS011;11065;50.786;7.840;2022-07-05T15:14:57;2.88;;;0.93;;
21806;SDS011;11065;50.786;7.840;2022-07-05T15:17:25;1.85;;;1.17;;
21806;SDS011;11065;50.786;7.840;2022-07-05T15:19:52;1.65;;;1.00;;
21806;SDS011;11065;50.786;7.840;2022-07-05T15:22:18;1.38;;;0.80;;
21806;SDS011;11065;50.786;7.840;2022-07-05T15:24:47;2.28;;;0.93;;